Home > Products > Valid Products > TAF

000
FTUS43 KAPX 251903 AAA
TAFPLN
TAF AMD
KPLN 251903Z 2519/2618 07007KT P6SM SCT250
     FM260500 12004KT P6SM SHRA OVC070
     FM260700 13005KT 3SM SHRA BR OVC018
     FM261400 18008KT 6SM BR OVC022
     FM261600 19008KT P6SM BKN045=



000
FTUS43 KAPX 251305 AAA
TAFPLN
TAF AMD
KPLN 251305Z 2513/2612 VRB03KT 3SM BR OVC002
     FM251530 05006KT P6SM SCT150
     FM252300 08006KT P6SM SCT250
     FM260400 12004KT P6SM SHRA OVC080
     FM260600 12005KT P6SM SHRA OVC020=



000
FTUS43 KAPX 251301 AAA
TAFTVC
TAF AMD
KTVC 251301Z 2513/2612 VRB03KT P6SM SCT250
     FM251800 02006KT P6SM SCT250
     FM260400 13004KT P6SM SHRA OVC080
     FM260600 14005KT 5SM SHRA BR OVC020=



000
FTUS43 KAPX 251258 AAA
TAFAPN
TAF AMD
KAPN 251258Z 2513/2612 06005KT P6SM SCT250
     FM251900 08007KT P6SM SCT250
     FM260000 11006KT P6SM SCT250
     FM260500 VRB03KT P6SM SHRA OVC050=



000
FTUS43 KAPX 251121
TAFAPN
TAF
KAPN 251121Z 2512/2612 VRB03KT 2SM BR BKN003
     FM251300 06005KT P6SM SCT250
     FM251900 08007KT P6SM SCT250
     FM260000 11006KT P6SM SCT250
     FM260500 VRB03KT P6SM SHRA OVC050=



000
FTUS43 KAPX 251120
TAFPLN
TAF
KPLN 251120Z 2512/2612 VRB03KT 2SM BR OVC006
      TEMPO 2512/2514 1/4SM FG VV003
     FM251500 05006KT P6SM SCT150
     FM252300 08006KT P6SM SCT250
     FM260400 12004KT P6SM SHRA OVC080
     FM260600 12005KT P6SM SHRA OVC020=



000
FTUS43 KAPX 251120
TAFAPN
TAF
KAPN 251120Z 2512/2612 VRB03KT 6SM BR FEW004
     FM251400 06005KT P6SM SCT250
     FM251900 08007KT P6SM SCT250
     FM260000 11006KT P6SM SCT250
     FM260500 VRB03KT P6SM SHRA OVC050=



000
FTUS43 KAPX 251120
TAFTVC
TAF
KTVC 251120Z 2512/2612 00000KT P6SM SCT250
     FM251800 02006KT P6SM SCT250
     FM260400 13004KT P6SM SHRA OVC080
     FM260600 14005KT 5SM SHRA BR OVC020=



000
FTUS43 KAPX 250607 AAA
TAFPLN
TAF AMD
KPLN 250607Z 2506/2606 00000KT 1/4SM FG VV002
      TEMPO 2512/2514 1 1/2SM BR BKN008
     FM251400 06005KT P6SM SCT040
     FM251800 08008KT P6SM SCT060 SCT250
     FM260100 10004KT P6SM BKN060=



000
FTUS43 KAPX 250230 AAA
TAFAPN
TAF AMD
KAPN 250230Z 2503/2524 34010KT P6SM VCSH BKN100
     FM250500 00000KT P6SM BKN060
     FM251400 06006KT P6SM BKN050
     FM251900 10008KT P6SM SCT050 SCT250=



000
FTUS43 KAPX 250216 AAB
TAFPLN
TAF AMD
KPLN 250216Z 2502/2524 VRB03KT 6SM BR BKN050
     FM250500 00000KT 3SM BR SCT040
     FM250900 VRB03KT 1SM BR BKN008
     FM251400 06005KT P6SM SCT040
     FM251800 08008KT P6SM SCT250=



000
FTUS43 KAPX 250059 AAA
TAFPLN
TAF AMD
KPLN 250059Z 2501/2524 28004KT P6SM -SHRA BKN050
      TEMPO 2501/2503 4SM -SHRA
     FM250500 00000KT P6SM SCT040
     FM250900 VRB03KT 3SM BR BKN008
     FM251400 06005KT P6SM SCT040
     FM251800 08008KT P6SM SCT250=



000
FTUS43 KAPX 242322
TAFPLN
TAF
KPLN 242322Z 2500/2524 34005KT P6SM -SHRA BKN060
     FM250500 00000KT P6SM SCT040
     FM250900 VRB03KT 3SM BR BKN008
     FM251400 06005KT P6SM SCT040
     FM251800 08008KT P6SM SCT250=



000
FTUS43 KAPX 242322
TAFTVC
TAF
KTVC 242322Z 2500/2524 23009KT P6SM VCSH BKN070 BKN120
     FM250200 VRB03KT P6SM BKN050
     FM250600 00000KT P6SM SCT070 SCT120
     FM251500 04005KT P6SM SCT060 BKN250=



000
FTUS43 KAPX 242322
TAFAPN
TAF
KAPN 242322Z 2500/2524 25004KT P6SM BKN100
     FM250500 00000KT P6SM BKN060
     FM251400 06006KT P6SM BKN050
     FM251900 10008KT P6SM SCT050 SCT250=



000
FTUS43 KAPX 241720
TAFAPN
TAF
KAPN 241720Z 2418/2518 23008G18KT P6SM FEW250
     FM250000 25004KT P6SM BKN250
     FM250600 00000KT P6SM BKN070
     FM251100 VRB03KT P6SM BKN025
     FM251400 34005KT P6SM BKN050
     FM251600 06007KT P6SM BKN070=



000
FTUS43 KAPX 241720
TAFPLN
TAF
KPLN 241720Z 2418/2518 23009G16KT P6SM SCT250
     FM250000 24006KT P6SM VCSH BKN080
     FM250500 00000KT P6SM SCT070
     FM250900 VRB03KT P6SM BKN012
     FM251500 04006KT P6SM SCT060 BKN250=



000
FTUS43 KAPX 241720
TAFTVC
TAF
KTVC 241720Z 2418/2518 23010G16KT P6SM SCT250
     FM250100 22004KT P6SM VCTS BKN080CB
     FM250600 00000KT P6SM SCT120
     FM251000 VRB03KT P6SM BKN022
     FM251400 04005KT P6SM SCT060 BKN250=



000
FTUS43 KAPX 241250 CCA
TAFPLN
TAF COR
KPLN 241250Z 2413/2512 21006KT P6SM SCT250
     FM241700 23010KT P6SM SCT250
     FM250000 24006KT P6SM VCSH BKN100
     FM250500 VRB03KT P6SM SCT070
     FM250900 00000KT P6SM BKN008=



000
FTUS43 KAPX 241250 CCA
TAFTVC
TAF COR
KTVC 241250Z 2413/2512 21007KT P6SM SCT250
     FM241700 23011KT P6SM SCT250
     FM250200 23007KT P6SM VCTS BKN080CB
     FM250600 VRB03KT P6SM BKN150
     FM250900 VRB03KT P6SM SCT015=



000
FTUS43 KAPX 241250 CCA
TAFAPN
TAF COR
KAPN 241250Z 2413/2512 21006KT P6SM FEW250
     FM250000 23006KT P6SM BKN250
     FM250600 00000KT P6SM BKN070
     FM251000 00000KT P6SM BKN025=



000
FTUS43 KAPX 240524
TAFPLN
TAF
KPLN 240524Z 2406/2506 VRB03KT P6SM FEW250 WS010/24030KT
     FM241300 22008KT P6SM FEW250
     FM241700 23010G17KT P6SM VCSH SCT060 BKN090
     FM242200 25008KT P6SM SCT050
     FM250300 VRB03KT P6SM VCSH OVC050=



000
FTUS43 KAPX 240524
TAFAPN
TAF
KAPN 240524Z 2406/2506 20004KT P6SM FEW250
     FM241400 21008KT P6SM SKC
     FM241900 24011G18KT P6SM VCSH BKN060
     FM250000 27005KT P6SM SCT050
     FM250400 30004KT P6SM VCSH OVC060=



000
FTUS43 KAPX 240524
TAFTVC
TAF
KTVC 240524Z 2406/2506 19003KT P6SM FEW250 WS010/23030KT
     FM241300 22008KT P6SM FEW250
     FM241700 22010G18KT P6SM SCT070 BKN100
     FM242300 23006KT P6SM SCT100
     FM250400 VRB03KT P6SM VCSH BKN040 BKN120=



000
FTUS43 KAPX 231120
TAFAPN
TAF
KAPN 231120Z 2312/2412 00000KT P6SM SKC
     FM231400 22006KT P6SM SKC
     FM231800 14011KT P6SM FEW250
     FM240000 19004KT P6SM FEW250=



000
FTUS43 KAPX 231120
TAFTVC
TAF
KTVC 231120Z 2312/2412 00000KT P6SM SKC
     FM231500 21007KT P6SM FEW250
     FM240000 20004KT P6SM SCT250=



000
FTUS43 KAPX 231120
TAFPLN
TAF
KPLN 231120Z 2312/2412 00000KT P6SM SKC
     FM231500 22007KT P6SM FEW250
     FM240000 20004KT P6SM SCT250=



000
FTUS43 KAPX 230520
TAFAPN
TAF
KAPN 230520Z 2306/2406 00000KT P6SM FEW250
     FM231400 22006KT P6SM FEW250
     FM231800 14011KT P6SM FEW250
     FM240000 18005KT P6SM FEW250=



000
FTUS43 KAPX 230520
TAFTVC
TAF
KTVC 230520Z 2306/2406 00000KT P6SM FEW250
     FM231500 22007KT P6SM FEW250
     FM240000 20004KT P6SM FEW250=



000
FTUS43 KAPX 230520
TAFPLN
TAF
KPLN 230520Z 2306/2406 00000KT P6SM FEW250
     FM231400 22007KT P6SM FEW250
     FM231800 23010KT P6SM FEW250
     FM240000 29005KT P6SM FEW250=



    US Dept of Commerce
    National Oceanic and Atmospheric Administration
    National Weather Service
    1325 East West Highway
    Silver Spring, MD 20910
    Page Author: NWS Internet Services Team
Disclaimer
Information Quality
Credits
Glossary
Privacy Policy
Freedom of Information Act (FOIA)
About Us
Career Opportunities